sensor_id;sensor_type;location;lat;lon;timestamp;P1;durP1;ratioP1;P2;durP2;ratioP2
2646;SDS011;1333;50.958;6.770;2022-10-31T00:00:45;7.90;;;5.60;;
2646;SDS011;1333;50.958;6.770;2022-10-31T00:03:10;7.80;;;5.77;;
2646;SDS011;1333;50.958;6.770;2022-10-31T00:05:39;13.03;;;5.17;;
2646;SDS011;1333;50.958;6.770;2022-10-31T00:08:06;9.53;;;5.97;;
2646;SDS011;1333;50.958;6.770;2022-10-31T00:10:31;14.53;;;6.90;;
2646;SDS011;1333;50.958;6.770;2022-10-31T00:12:57;10.97;;;6.27;;
2646;SDS011;1333;50.958;6.770;2022-10-31T00:15:22;9.43;;;5.60;;
2646;SDS011;1333;50.958;6.770;2022-10-31T00:17:48;7.03;;;5.20;;
2646;SDS011;1333;50.958;6.770;2022-10-31T00:20:13;9.80;;;6.60;;
2646;SDS011;1333;50.958;6.770;2022-10-31T00:22:39;7.80;;;5.33;;
2646;SDS011;1333;50.958;6.770;2022-10-31T00:25:04;10.03;;;5.93;;
2646;SDS011;1333;50.958;6.770;2022-10-31T00:27:30;8.03;;;6.03;;
2646;SDS011;1333;50.958;6.770;2022-10-31T00:29:55;11.03;;;6.83;;
2646;SDS011;1333;50.958;6.770;2022-10-31T00:32:21;6.43;;;5.03;;
2646;SDS011;1333;50.958;6.770;2022-10-31T00:34:46;17.80;;;6.30;;
2646;SDS011;1333;50.958;6.770;2022-10-31T00:37:12;8.70;;;5.50;;
2646;SDS011;1333;50.958;6.770;2022-10-31T00:39:37;11.83;;;5.13;;
2646;SDS011;1333;50.958;6.770;2022-10-31T00:42:03;7.60;;;5.40;;
2646;SDS011;1333;50.958;6.770;2022-10-31T00:44:28;7.37;;;5.33;;
2646;SDS011;1333;50.958;6.770;2022-10-31T00:46:54;18.83;;;7.73;;
2646;SDS011;1333;50.958;6.770;2022-10-31T00:49:19;11.47;;;6.03;;
2646;SDS011;1333;50.958;6.770;2022-10-31T00:51:45;10.03;;;5.00;;
2646;SDS011;1333;50.958;6.770;2022-10-31T00:54:10;10.47;;;4.87;;
2646;SDS011;1333;50.958;6.770;2022-10-31T00:56:36;7.87;;;5.73;;
2646;SDS011;1333;50.958;6.770;2022-10-31T00:59:01;7.67;;;4.73;;
2646;SDS011;1333;50.958;6.770;2022-10-31T01:01:27;9.60;;;6.03;;
2646;SDS011;1333;50.958;6.770;2022-10-31T01:03:52;5.40;;;4.70;;
2646;SDS011;1333;50.958;6.770;2022-10-31T01:06:18;7.50;;;5.37;;
2646;SDS011;1333;50.958;6.770;2022-10-31T01:08:43;9.23;;;4.90;;
2646;SDS011;1333;50.958;6.770;2022-10-31T01:13:37;9.27;;;6.40;;
2646;SDS011;1333;50.958;6.770;2022-10-31T01:16:04;10.10;;;6.60;;
2646;SDS011;1333;50.958;6.770;2022-10-31T01:18:31;8.33;;;5.43;;
2646;SDS011;1333;50.958;6.770;2022-10-31T01:20:57;10.03;;;7.50;;
2646;SDS011;1333;50.958;6.770;2022-10-31T01:23:28;15.20;;;7.40;;
2646;SDS011;1333;50.958;6.770;2022-10-31T01:26:05;7.50;;;4.80;;
2646;SDS011;1333;50.958;6.770;2022-10-31T01:28:37;7.07;;;5.27;;
2646;SDS011;1333;50.958;6.770;2022-10-31T01:31:05;11.40;;;6.80;;
2646;SDS011;1333;50.958;6.770;2022-10-31T01:33:32;12.63;;;6.93;;
2646;SDS011;1333;50.958;6.770;2022-10-31T01:35:58;10.20;;;7.00;;
2646;SDS011;1333;50.958;6.770;2022-10-31T01:38:23;12.30;;;6.90;;
2646;SDS011;1333;50.958;6.770;2022-10-31T01:40:49;9.00;;;5.90;;
2646;SDS011;1333;50.958;6.770;2022-10-31T01:43:15;12.90;;;7.20;;
2646;SDS011;1333;50.958;6.770;2022-10-31T01:45:45;12.57;;;6.87;;
2646;SDS011;1333;50.958;6.770;2022-10-31T01:48:16;10.03;;;6.40;;
2646;SDS011;1333;50.958;6.770;2022-10-31T01:50:44;16.40;;;8.40;;
2646;SDS011;1333;50.958;6.770;2022-10-31T01:53:13;14.27;;;6.53;;
2646;SDS011;1333;50.958;6.770;2022-10-31T01:55:41;9.87;;;6.70;;
2646;SDS011;1333;50.958;6.770;2022-10-31T01:58:09;11.93;;;6.50;;
2646;SDS011;1333;50.958;6.770;2022-10-31T02:00:39;9.90;;;6.40;;
2646;SDS011;1333;50.958;6.770;2022-10-31T02:03:06;17.63;;;6.30;;
2646;SDS011;1333;50.958;6.770;2022-10-31T02:05:32;11.10;;;6.67;;
2646;SDS011;1333;50.958;6.770;2022-10-31T02:07:59;7.63;;;6.40;;
2646;SDS011;1333;50.958;6.770;2022-10-31T02:10:38;7.03;;;6.20;;
2646;SDS011;1333;50.958;6.770;2022-10-31T02:13:07;12.23;;;5.83;;
2646;SDS011;1333;50.958;6.770;2022-10-31T02:15:33;10.30;;;7.00;;
2646;SDS011;1333;50.958;6.770;2022-10-31T02:18:01;8.20;;;6.17;;
2646;SDS011;1333;50.958;6.770;2022-10-31T02:20:29;12.63;;;6.20;;
2646;SDS011;1333;50.958;6.770;2022-10-31T02:34:52;11.97;;;6.87;;
2646;SDS011;1333;50.958;6.770;2022-10-31T02:40:26;8.23;;;5.90;;
2646;SDS011;1333;50.958;6.770;2022-10-31T02:43:03;11.20;;;6.37;;
2646;SDS011;1333;50.958;6.770;2022-10-31T02:45:39;12.40;;;6.80;;
2646;SDS011;1333;50.958;6.770;2022-10-31T02:48:26;34.10;;;22.00;;
2646;SDS011;1333;50.958;6.770;2022-10-31T02:50:57;17.47;;;10.60;;
2646;SDS011;1333;50.958;6.770;2022-10-31T02:53:25;11.03;;;6.73;;
2646;SDS011;1333;50.958;6.770;2022-10-31T02:58:22;8.27;;;6.77;;
2646;SDS011;1333;50.958;6.770;2022-10-31T03:08:50;10.43;;;7.37;;
2646;SDS011;1333;50.958;6.770;2022-10-31T03:11:33;13.60;;;8.00;;
2646;SDS011;1333;50.958;6.770;2022-10-31T03:14:17;8.47;;;6.30;;
2646;SDS011;1333;50.958;6.770;2022-10-31T03:16:50;12.13;;;7.10;;
2646;SDS011;1333;50.958;6.770;2022-10-31T03:19:22;7.50;;;6.67;;
2646;SDS011;1333;50.958;6.770;2022-10-31T03:24:30;12.23;;;6.33;;
2646;SDS011;1333;50.958;6.770;2022-10-31T03:26:59;10.03;;;6.17;;
2646;SDS011;1333;50.958;6.770;2022-10-31T03:29:27;14.83;;;7.57;;
2646;SDS011;1333;50.958;6.770;2022-10-31T03:31:58;10.23;;;8.13;;
2646;SDS011;1333;50.958;6.770;2022-10-31T03:34:30;11.60;;;7.60;;
2646;SDS011;1333;50.958;6.770;2022-10-31T03:36:59;20.00;;;7.23;;
2646;SDS011;1333;50.958;6.770;2022-10-31T03:39:28;15.53;;;8.70;;
2646;SDS011;1333;50.958;6.770;2022-10-31T03:42:05;13.47;;;6.47;;
2646;SDS011;1333;50.958;6.770;2022-10-31T03:44:34;10.07;;;7.30;;
2646;SDS011;1333;50.958;6.770;2022-10-31T03:47:02;17.00;;;7.00;;
2646;SDS011;1333;50.958;6.770;2022-10-31T03:49:29;15.77;;;7.40;;
2646;SDS011;1333;50.958;6.770;2022-10-31T03:54:52;30.10;;;16.63;;
2646;SDS011;1333;50.958;6.770;2022-10-31T03:57:48;12.80;;;8.77;;
2646;SDS011;1333;50.958;6.770;2022-10-31T04:00:20;14.33;;;7.33;;
2646;SDS011;1333;50.958;6.770;2022-10-31T04:02:48;30.77;;;14.70;;
2646;SDS011;1333;50.958;6.770;2022-10-31T04:05:18;19.50;;;14.67;;
2646;SDS011;1333;50.958;6.770;2022-10-31T04:07:46;16.30;;;9.80;;
2646;SDS011;1333;50.958;6.770;2022-10-31T04:10:14;18.23;;;8.47;;
2646;SDS011;1333;50.958;6.770;2022-10-31T04:12:41;13.97;;;8.33;;
2646;SDS011;1333;50.958;6.770;2022-10-31T04:15:11;16.20;;;8.50;;
2646;SDS011;1333;50.958;6.770;2022-10-31T04:17:38;18.97;;;8.80;;
2646;SDS011;1333;50.958;6.770;2022-10-31T04:20:05;18.37;;;7.77;;
2646;SDS011;1333;50.958;6.770;2022-10-31T04:22:31;18.00;;;7.70;;
2646;SDS011;1333;50.958;6.770;2022-10-31T04:24:57;11.03;;;6.73;;
2646;SDS011;1333;50.958;6.770;2022-10-31T04:27:22;15.83;;;8.20;;
2646;SDS011;1333;50.958;6.770;2022-10-31T04:29:48;20.00;;;8.30;;
2646;SDS011;1333;50.958;6.770;2022-10-31T04:32:13;12.20;;;8.03;;
2646;SDS011;1333;50.958;6.770;2022-10-31T04:34:39;14.40;;;7.60;;
2646;SDS011;1333;50.958;6.770;2022-10-31T04:37:04;16.80;;;7.90;;
2646;SDS011;1333;50.958;6.770;2022-10-31T04:39:30;21.40;;;8.30;;
2646;SDS011;1333;50.958;6.770;2022-10-31T04:41:55;14.53;;;7.50;;
2646;SDS011;1333;50.958;6.770;2022-10-31T04:44:21;8.00;;;5.83;;
2646;SDS011;1333;50.958;6.770;2022-10-31T04:46:46;9.23;;;6.67;;
2646;SDS011;1333;50.958;6.770;2022-10-31T04:49:12;9.90;;;6.47;;
2646;SDS011;1333;50.958;6.770;2022-10-31T04:51:38;12.33;;;6.03;;
2646;SDS011;1333;50.958;6.770;2022-10-31T04:54:03;8.27;;;6.20;;
2646;SDS011;1333;50.958;6.770;2022-10-31T04:56:29;10.03;;;5.33;;
2646;SDS011;1333;50.958;6.770;2022-10-31T04:58:54;8.27;;;6.70;;
2646;SDS011;1333;50.958;6.770;2022-10-31T05:01:20;10.57;;;5.90;;
2646;SDS011;1333;50.958;6.770;2022-10-31T05:03:46;14.00;;;6.00;;
2646;SDS011;1333;50.958;6.770;2022-10-31T05:06:11;14.70;;;6.00;;
2646;SDS011;1333;50.958;6.770;2022-10-31T05:08:37;11.73;;;6.10;;
2646;SDS011;1333;50.958;6.770;2022-10-31T05:11:02;9.93;;;4.73;;
2646;SDS011;1333;50.958;6.770;2022-10-31T05:13:29;10.33;;;5.70;;
2646;SDS011;1333;50.958;6.770;2022-10-31T05:15:54;11.73;;;5.57;;
2646;SDS011;1333;50.958;6.770;2022-10-31T05:18:20;7.50;;;4.63;;
2646;SDS011;1333;50.958;6.770;2022-10-31T05:20:46;14.90;;;6.77;;
2646;SDS011;1333;50.958;6.770;2022-10-31T05:23:11;10.67;;;5.87;;
2646;SDS011;1333;50.958;6.770;2022-10-31T05:25:37;11.83;;;6.27;;
2646;SDS011;1333;50.958;6.770;2022-10-31T05:28:04;13.20;;;5.77;;
2646;SDS011;1333;50.958;6.770;2022-10-31T05:30:30;8.27;;;5.70;;
2646;SDS011;1333;50.958;6.770;2022-10-31T05:32:56;13.37;;;6.40;;
2646;SDS011;1333;50.958;6.770;2022-10-31T05:35:26;6.30;;;5.23;;
2646;SDS011;1333;50.958;6.770;2022-10-31T05:37:53;13.30;;;6.17;;
2646;SDS011;1333;50.958;6.770;2022-10-31T05:40:19;14.17;;;6.50;;
2646;SDS011;1333;50.958;6.770;2022-10-31T05:42:46;10.97;;;6.00;;
2646;SDS011;1333;50.958;6.770;2022-10-31T05:45:15;12.67;;;6.60;;
2646;SDS011;1333;50.958;6.770;2022-10-31T05:47:42;7.30;;;5.40;;
2646;SDS011;1333;50.958;6.770;2022-10-31T05:50:14;12.30;;;6.57;;
2646;SDS011;1333;50.958;6.770;2022-10-31T05:52:40;18.60;;;6.40;;
2646;SDS011;1333;50.958;6.770;2022-10-31T05:55:05;7.90;;;4.87;;
2646;SDS011;1333;50.958;6.770;2022-10-31T05:57:31;8.70;;;6.20;;
2646;SDS011;1333;50.958;6.770;2022-10-31T05:59:58;11.97;;;5.60;;
2646;SDS011;1333;50.958;6.770;2022-10-31T06:02:23;8.43;;;4.73;;
2646;SDS011;1333;50.958;6.770;2022-10-31T06:04:50;8.80;;;6.20;;
2646;SDS011;1333;50.958;6.770;2022-10-31T06:07:15;13.23;;;6.70;;
2646;SDS011;1333;50.958;6.770;2022-10-31T06:09:41;8.60;;;5.40;;
2646;SDS011;1333;50.958;6.770;2022-10-31T06:12:06;8.10;;;5.37;;
2646;SDS011;1333;50.958;6.770;2022-10-31T06:14:32;7.40;;;5.30;;
2646;SDS011;1333;50.958;6.770;2022-10-31T06:16:57;10.03;;;5.70;;
2646;SDS011;1333;50.958;6.770;2022-10-31T06:19:23;11.50;;;6.00;;
2646;SDS011;1333;50.958;6.770;2022-10-31T06:21:48;7.00;;;5.80;;
2646;SDS011;1333;50.958;6.770;2022-10-31T06:24:14;11.83;;;6.60;;
2646;SDS011;1333;50.958;6.770;2022-10-31T06:26:40;7.47;;;5.27;;
2646;SDS011;1333;50.958;6.770;2022-10-31T06:29:05;8.57;;;5.90;;
2646;SDS011;1333;50.958;6.770;2022-10-31T06:31:31;11.33;;;6.40;;
2646;SDS011;1333;50.958;6.770;2022-10-31T06:33:56;10.10;;;5.60;;
2646;SDS011;1333;50.958;6.770;2022-10-31T06:36:22;11.30;;;6.50;;
2646;SDS011;1333;50.958;6.770;2022-10-31T06:38:48;11.90;;;6.10;;
2646;SDS011;1333;50.958;6.770;2022-10-31T06:41:13;8.00;;;6.20;;
2646;SDS011;1333;50.958;6.770;2022-10-31T06:43:39;10.27;;;6.60;;
2646;SDS011;1333;50.958;6.770;2022-10-31T06:46:04;11.87;;;5.90;;
2646;SDS011;1333;50.958;6.770;2022-10-31T06:48:30;7.77;;;5.47;;
2646;SDS011;1333;50.958;6.770;2022-10-31T06:50:57;12.10;;;5.83;;
2646;SDS011;1333;50.958;6.770;2022-10-31T06:53:27;8.13;;;6.00;;
2646;SDS011;1333;50.958;6.770;2022-10-31T06:55:55;9.30;;;5.43;;
2646;SDS011;1333;50.958;6.770;2022-10-31T06:58:21;11.83;;;6.87;;
2646;SDS011;1333;50.958;6.770;2022-10-31T07:00:46;8.63;;;6.47;;
2646;SDS011;1333;50.958;6.770;2022-10-31T07:03:12;9.77;;;5.77;;
2646;SDS011;1333;50.958;6.770;2022-10-31T07:05:40;12.40;;;6.43;;
2646;SDS011;1333;50.958;6.770;2022-10-31T07:08:06;8.17;;;5.27;;
2646;SDS011;1333;50.958;6.770;2022-10-31T07:10:34;12.03;;;5.83;;
2646;SDS011;1333;50.958;6.770;2022-10-31T07:13:01;10.20;;;5.83;;
2646;SDS011;1333;50.958;6.770;2022-10-31T07:15:32;7.00;;;5.87;;
2646;SDS011;1333;50.958;6.770;2022-10-31T07:17:59;17.10;;;7.30;;
2646;SDS011;1333;50.958;6.770;2022-10-31T07:20:29;10.60;;;5.90;;
2646;SDS011;1333;50.958;6.770;2022-10-31T07:22:55;7.13;;;5.80;;
2646;SDS011;1333;50.958;6.770;2022-10-31T07:25:21;6.53;;;5.90;;
2646;SDS011;1333;50.958;6.770;2022-10-31T07:27:48;14.67;;;7.03;;
2646;SDS011;1333;50.958;6.770;2022-10-31T07:30:14;12.43;;;6.20;;
2646;SDS011;1333;50.958;6.770;2022-10-31T07:32:44;10.63;;;4.77;;
2646;SDS011;1333;50.958;6.770;2022-10-31T07:35:15;6.67;;;5.10;;
2646;SDS011;1333;50.958;6.770;2022-10-31T07:37:45;8.57;;;4.93;;
2646;SDS011;1333;50.958;6.770;2022-10-31T07:40:11;8.20;;;5.40;;
2646;SDS011;1333;50.958;6.770;2022-10-31T07:42:37;8.90;;;4.73;;
2646;SDS011;1333;50.958;6.770;2022-10-31T07:45:04;9.93;;;5.80;;
2646;SDS011;1333;50.958;6.770;2022-10-31T07:47:37;12.10;;;6.47;;
2646;SDS011;1333;50.958;6.770;2022-10-31T07:50:04;7.70;;;5.40;;
2646;SDS011;1333;50.958;6.770;2022-10-31T07:52:29;8.20;;;5.83;;
2646;SDS011;1333;50.958;6.770;2022-10-31T07:54:55;8.67;;;5.17;;
2646;SDS011;1333;50.958;6.770;2022-10-31T07:57:20;15.57;;;6.57;;
2646;SDS011;1333;50.958;6.770;2022-10-31T07:59:46;10.83;;;6.07;;
2646;SDS011;1333;50.958;6.770;2022-10-31T08:02:11;12.83;;;6.37;;
2646;SDS011;1333;50.958;6.770;2022-10-31T08:04:37;9.20;;;6.43;;
2646;SDS011;1333;50.958;6.770;2022-10-31T08:07:02;7.77;;;5.43;;
2646;SDS011;1333;50.958;6.770;2022-10-31T08:09:28;12.43;;;6.30;;
2646;SDS011;1333;50.958;6.770;2022-10-31T08:11:53;14.93;;;5.53;;
2646;SDS011;1333;50.958;6.770;2022-10-31T08:14:19;14.90;;;6.10;;
2646;SDS011;1333;50.958;6.770;2022-10-31T08:16:44;8.47;;;5.47;;
2646;SDS011;1333;50.958;6.770;2022-10-31T08:19:10;10.47;;;6.50;;
2646;SDS011;1333;50.958;6.770;2022-10-31T08:21:35;12.83;;;5.97;;
2646;SDS011;1333;50.958;6.770;2022-10-31T08:24:01;8.33;;;6.20;;
2646;SDS011;1333;50.958;6.770;2022-10-31T08:26:26;10.73;;;5.97;;
2646;SDS011;1333;50.958;6.770;2022-10-31T08:28:52;8.73;;;6.20;;
2646;SDS011;1333;50.958;6.770;2022-10-31T08:31:19;19.53;;;6.27;;
2646;SDS011;1333;50.958;6.770;2022-10-31T08:33:45;12.33;;;5.37;;
2646;SDS011;1333;50.958;6.770;2022-10-31T08:36:10;9.60;;;6.57;;
2646;SDS011;1333;50.958;6.770;2022-10-31T08:38:36;7.67;;;4.90;;
2646;SDS011;1333;50.958;6.770;2022-10-31T08:41:01;8.93;;;6.03;;
2646;SDS011;1333;50.958;6.770;2022-10-31T08:43:27;11.93;;;6.60;;
2646;SDS011;1333;50.958;6.770;2022-10-31T08:45:52;11.43;;;5.80;;
2646;SDS011;1333;50.958;6.770;2022-10-31T08:48:19;9.00;;;6.30;;
2646;SDS011;1333;50.958;6.770;2022-10-31T08:50:45;8.73;;;5.17;;
2646;SDS011;1333;50.958;6.770;2022-10-31T08:55:38;10.20;;;5.50;;
2646;SDS011;1333;50.958;6.770;2022-10-31T08:58:09;14.40;;;6.10;;
2646;SDS011;1333;50.958;6.770;2022-10-31T09:00:36;8.60;;;5.47;;
2646;SDS011;1333;50.958;6.770;2022-10-31T09:03:06;6.77;;;5.53;;
2646;SDS011;1333;50.958;6.770;2022-10-31T09:05:35;10.00;;;6.53;;
2646;SDS011;1333;50.958;6.770;2022-10-31T09:08:01;10.70;;;6.33;;
2646;SDS011;1333;50.958;6.770;2022-10-31T09:10:28;9.57;;;5.83;;
2646;SDS011;1333;50.958;6.770;2022-10-31T09:13:05;8.83;;;6.57;;
2646;SDS011;1333;50.958;6.770;2022-10-31T09:15:34;8.43;;;5.83;;
2646;SDS011;1333;50.958;6.770;2022-10-31T09:18:03;12.77;;;6.10;;
2646;SDS011;1333;50.958;6.770;2022-10-31T09:20:29;14.87;;;5.23;;
2646;SDS011;1333;50.958;6.770;2022-10-31T09:22:57;12.87;;;5.30;;
2646;SDS011;1333;50.958;6.770;2022-10-31T09:25:24;7.67;;;5.93;;
2646;SDS011;1333;50.958;6.770;2022-10-31T09:27:51;7.90;;;5.53;;
2646;SDS011;1333;50.958;6.770;2022-10-31T09:30:20;9.27;;;6.17;;
2646;SDS011;1333;50.958;6.770;2022-10-31T09:32:45;7.77;;;5.40;;
2646;SDS011;1333;50.958;6.770;2022-10-31T09:35:11;6.30;;;5.07;;
2646;SDS011;1333;50.958;6.770;2022-10-31T09:37:36;6.97;;;5.23;;
2646;SDS011;1333;50.958;6.770;2022-10-31T09:40:02;9.23;;;5.17;;
2646;SDS011;1333;50.958;6.770;2022-10-31T09:42:38;7.40;;;4.63;;
2646;SDS011;1333;50.958;6.770;2022-10-31T09:47:48;7.30;;;5.07;;
2646;SDS011;1333;50.958;6.770;2022-10-31T09:50:54;15.13;;;5.03;;
2646;SDS011;1333;50.958;6.770;2022-10-31T09:53:42;10.30;;;6.23;;
2646;SDS011;1333;50.958;6.770;2022-10-31T09:56:30;10.90;;;5.00;;
2646;SDS011;1333;50.958;6.770;2022-10-31T09:58:58;14.07;;;6.40;;
2646;SDS011;1333;50.958;6.770;2022-10-31T10:06:57;7.63;;;5.40;;
2646;SDS011;1333;50.958;6.770;2022-10-31T10:09:26;10.00;;;5.57;;
2646;SDS011;1333;50.958;6.770;2022-10-31T10:17:11;7.23;;;4.33;;
2646;SDS011;1333;50.958;6.770;2022-10-31T10:27:49;9.67;;;5.00;;
2646;SDS011;1333;50.958;6.770;2022-10-31T10:37:58;8.87;;;5.30;;
2646;SDS011;1333;50.958;6.770;2022-10-31T10:40:35;6.10;;;3.47;;
2646;SDS011;1333;50.958;6.770;2022-10-31T10:45:49;5.97;;;4.50;;
2646;SDS011;1333;50.958;6.770;2022-10-31T10:48:41;5.07;;;3.90;;
2646;SDS011;1333;50.958;6.770;2022-10-31T10:51:37;15.17;;;4.70;;
2646;SDS011;1333;50.958;6.770;2022-10-31T10:59:45;11.83;;;4.63;;
2646;SDS011;1333;50.958;6.770;2022-10-31T11:04:43;6.73;;;3.97;;
2646;SDS011;1333;50.958;6.770;2022-10-31T11:07:14;8.13;;;4.30;;
2646;SDS011;1333;50.958;6.770;2022-10-31T11:09:39;6.07;;;3.60;;
2646;SDS011;1333;50.958;6.770;2022-10-31T11:12:19;9.70;;;4.90;;
2646;SDS011;1333;50.958;6.770;2022-10-31T11:14:50;8.43;;;3.87;;
2646;SDS011;1333;50.958;6.770;2022-10-31T11:17:26;6.27;;;4.00;;
2646;SDS011;1333;50.958;6.770;2022-10-31T11:22:33;9.70;;;5.53;;
2646;SDS011;1333;50.958;6.770;2022-10-31T11:24:58;10.67;;;5.23;;
2646;SDS011;1333;50.958;6.770;2022-10-31T11:27:25;5.53;;;4.50;;
2646;SDS011;1333;50.958;6.770;2022-10-31T11:29:51;4.73;;;3.70;;
2646;SDS011;1333;50.958;6.770;2022-10-31T11:32:18;7.47;;;4.47;;
2646;SDS011;1333;50.958;6.770;2022-10-31T11:34:56;7.87;;;3.70;;
2646;SDS011;1333;50.958;6.770;2022-10-31T11:37:28;5.13;;;3.47;;
2646;SDS011;1333;50.958;6.770;2022-10-31T11:39:58;5.67;;;4.30;;
2646;SDS011;1333;50.958;6.770;2022-10-31T11:42:26;15.43;;;5.20;;
2646;SDS011;1333;50.958;6.770;2022-10-31T11:44:54;7.60;;;4.67;;
2646;SDS011;1333;50.958;6.770;2022-10-31T11:47:23;18.07;;;8.53;;
2646;SDS011;1333;50.958;6.770;2022-10-31T11:49:52;7.10;;;4.90;;
2646;SDS011;1333;50.958;6.770;2022-10-31T11:52:25;8.20;;;4.47;;
2646;SDS011;1333;50.958;6.770;2022-10-31T11:55:01;5.93;;;5.13;;
2646;SDS011;1333;50.958;6.770;2022-10-31T11:57:43;6.73;;;4.03;;
2646;SDS011;1333;50.958;6.770;2022-10-31T12:00:21;6.47;;;3.40;;
2646;SDS011;1333;50.958;6.770;2022-10-31T12:03:04;7.03;;;4.27;;
2646;SDS011;1333;50.958;6.770;2022-10-31T12:05:39;8.50;;;4.87;;
2646;SDS011;1333;50.958;6.770;2022-10-31T12:08:09;6.20;;;4.70;;
2646;SDS011;1333;50.958;6.770;2022-10-31T12:10:45;6.37;;;4.77;;
2646;SDS011;1333;50.958;6.770;2022-10-31T12:15:58;8.33;;;3.60;;
2646;SDS011;1333;50.958;6.770;2022-10-31T12:18:49;15.20;;;5.27;;
2646;SDS011;1333;50.958;6.770;2022-10-31T12:29:46;9.97;;;4.17;;
2646;SDS011;1333;50.958;6.770;2022-10-31T12:37:53;6.43;;;3.87;;
2646;SDS011;1333;50.958;6.770;2022-10-31T12:46:03;7.30;;;4.40;;
2646;SDS011;1333;50.958;6.770;2022-10-31T12:48:46;7.13;;;4.33;;
2646;SDS011;1333;50.958;6.770;2022-10-31T12:59:35;4.53;;;2.97;;
2646;SDS011;1333;50.958;6.770;2022-10-31T13:04:51;6.93;;;4.03;;
2646;SDS011;1333;50.958;6.770;2022-10-31T13:07:23;6.57;;;3.87;;
2646;SDS011;1333;50.958;6.770;2022-10-31T13:09:56;7.90;;;3.80;;
2646;SDS011;1333;50.958;6.770;2022-10-31T13:12:31;15.03;;;3.93;;
2646;SDS011;1333;50.958;6.770;2022-10-31T13:15:01;8.77;;;3.87;;
2646;SDS011;1333;50.958;6.770;2022-10-31T13:17:33;9.77;;;4.60;;
2646;SDS011;1333;50.958;6.770;2022-10-31T13:25:38;9.27;;;5.00;;
2646;SDS011;1333;50.958;6.770;2022-10-31T13:28:31;5.33;;;4.63;;
2646;SDS011;1333;50.958;6.770;2022-10-31T13:30:58;5.00;;;3.13;;
2646;SDS011;1333;50.958;6.770;2022-10-31T13:42:04;5.27;;;3.37;;
2646;SDS011;1333;50.958;6.770;2022-10-31T13:44:34;8.57;;;3.50;;
2646;SDS011;1333;50.958;6.770;2022-10-31T13:47:04;7.83;;;3.90;;
2646;SDS011;1333;50.958;6.770;2022-10-31T13:49:49;12.60;;;4.00;;
2646;SDS011;1333;50.958;6.770;2022-10-31T13:52:16;4.87;;;4.03;;
2646;SDS011;1333;50.958;6.770;2022-10-31T13:54:50;7.37;;;3.43;;
2646;SDS011;1333;50.958;6.770;2022-10-31T13:57:30;6.67;;;3.80;;
2646;SDS011;1333;50.958;6.770;2022-10-31T13:59:59;4.77;;;3.70;;
2646;SDS011;1333;50.958;6.770;2022-10-31T14:02:34;6.30;;;3.40;;
2646;SDS011;1333;50.958;6.770;2022-10-31T14:05:25;5.70;;;4.13;;
2646;SDS011;1333;50.958;6.770;2022-10-31T14:07:49;9.23;;;3.50;;
2646;SDS011;1333;50.958;6.770;2022-10-31T14:10:22;4.73;;;4.00;;
2646;SDS011;1333;50.958;6.770;2022-10-31T14:12:52;5.60;;;4.03;;
2646;SDS011;1333;50.958;6.770;2022-10-31T14:15:27;6.47;;;4.07;;
2646;SDS011;1333;50.958;6.770;2022-10-31T14:17:54;7.37;;;3.60;;
2646;SDS011;1333;50.958;6.770;2022-10-31T14:20:25;9.20;;;3.90;;
2646;SDS011;1333;50.958;6.770;2022-10-31T14:22:54;5.70;;;3.60;;
2646;SDS011;1333;50.958;6.770;2022-10-31T14:25:27;4.20;;;3.07;;
2646;SDS011;1333;50.958;6.770;2022-10-31T14:27:54;7.33;;;3.60;;
2646;SDS011;1333;50.958;6.770;2022-10-31T14:30:22;5.83;;;3.27;;
2646;SDS011;1333;50.958;6.770;2022-10-31T14:33:02;5.50;;;3.47;;
2646;SDS011;1333;50.958;6.770;2022-10-31T14:44:41;5.37;;;3.10;;
2646;SDS011;1333;50.958;6.770;2022-10-31T14:50:32;12.40;;;3.00;;
2646;SDS011;1333;50.958;6.770;2022-10-31T14:53:01;4.03;;;3.00;;
2646;SDS011;1333;50.958;6.770;2022-10-31T14:55:30;7.47;;;3.73;;
2646;SDS011;1333;50.958;6.770;2022-10-31T14:58:04;5.03;;;3.33;;
2646;SDS011;1333;50.958;6.770;2022-10-31T15:00:32;4.53;;;3.20;;
2646;SDS011;1333;50.958;6.770;2022-10-31T15:03:12;6.87;;;3.00;;
2646;SDS011;1333;50.958;6.770;2022-10-31T15:05:54;10.87;;;3.33;;
2646;SDS011;1333;50.958;6.770;2022-10-31T15:08:27;6.57;;;2.80;;
2646;SDS011;1333;50.958;6.770;2022-10-31T15:10:57;3.43;;;2.60;;
2646;SDS011;1333;50.958;6.770;2022-10-31T15:13:23;3.77;;;3.03;;
2646;SDS011;1333;50.958;6.770;2022-10-31T15:15:52;3.97;;;2.70;;
2646;SDS011;1333;50.958;6.770;2022-10-31T15:18:21;4.77;;;2.80;;
2646;SDS011;1333;50.958;6.770;2022-10-31T15:20:51;9.30;;;3.40;;
2646;SDS011;1333;50.958;6.770;2022-10-31T15:23:23;4.80;;;3.00;;
2646;SDS011;1333;50.958;6.770;2022-10-31T15:25:57;6.57;;;2.90;;
2646;SDS011;1333;50.958;6.770;2022-10-31T15:28:25;16.57;;;3.67;;
2646;SDS011;1333;50.958;6.770;2022-10-31T15:30:55;5.10;;;2.83;;
2646;SDS011;1333;50.958;6.770;2022-10-31T15:33:29;8.67;;;3.53;;
2646;SDS011;1333;50.958;6.770;2022-10-31T15:35:57;10.27;;;3.50;;
2646;SDS011;1333;50.958;6.770;2022-10-31T15:38:25;4.23;;;2.80;;
2646;SDS011;1333;50.958;6.770;2022-10-31T15:40:59;12.07;;;3.50;;
2646;SDS011;1333;50.958;6.770;2022-10-31T15:43:27;6.60;;;3.30;;
2646;SDS011;1333;50.958;6.770;2022-10-31T15:45:59;5.93;;;2.87;;
2646;SDS011;1333;50.958;6.770;2022-10-31T15:48:25;8.17;;;3.17;;
2646;SDS011;1333;50.958;6.770;2022-10-31T15:50:52;8.53;;;2.93;;
2646;SDS011;1333;50.958;6.770;2022-10-31T15:53:53;7.20;;;2.83;;
2646;SDS011;1333;50.958;6.770;2022-10-31T15:56:24;5.07;;;3.10;;
2646;SDS011;1333;50.958;6.770;2022-10-31T15:58:53;7.17;;;3.00;;
2646;SDS011;1333;50.958;6.770;2022-10-31T16:01:25;6.77;;;3.00;;
2646;SDS011;1333;50.958;6.770;2022-10-31T16:06:58;6.67;;;3.50;;
2646;SDS011;1333;50.958;6.770;2022-10-31T16:09:26;10.63;;;3.13;;
2646;SDS011;1333;50.958;6.770;2022-10-31T16:11:51;3.90;;;2.80;;
2646;SDS011;1333;50.958;6.770;2022-10-31T16:14:18;5.40;;;3.57;;
2646;SDS011;1333;50.958;6.770;2022-10-31T16:16:49;5.40;;;2.93;;
2646;SDS011;1333;50.958;6.770;2022-10-31T16:19:19;3.50;;;2.60;;
2646;SDS011;1333;50.958;6.770;2022-10-31T16:21:50;6.27;;;3.40;;
2646;SDS011;1333;50.958;6.770;2022-10-31T16:24:37;7.50;;;3.30;;
2646;SDS011;1333;50.958;6.770;2022-10-31T16:27:19;5.60;;;3.60;;
2646;SDS011;1333;50.958;6.770;2022-10-31T16:29:50;5.80;;;3.30;;
2646;SDS011;1333;50.958;6.770;2022-10-31T16:32:23;7.00;;;3.10;;
2646;SDS011;1333;50.958;6.770;2022-10-31T16:34:57;7.37;;;3.43;;
2646;SDS011;1333;50.958;6.770;2022-10-31T16:37:25;6.80;;;3.20;;
2646;SDS011;1333;50.958;6.770;2022-10-31T16:39:51;6.30;;;3.17;;
2646;SDS011;1333;50.958;6.770;2022-10-31T16:42:16;7.53;;;3.73;;
2646;SDS011;1333;50.958;6.770;2022-10-31T16:44:43;5.40;;;2.87;;
2646;SDS011;1333;50.958;6.770;2022-10-31T16:47:14;9.57;;;3.00;;
2646;SDS011;1333;50.958;6.770;2022-10-31T16:49:41;5.37;;;3.20;;
2646;SDS011;1333;50.958;6.770;2022-10-31T16:52:07;5.40;;;3.20;;
2646;SDS011;1333;50.958;6.770;2022-10-31T16:54:33;6.30;;;3.27;;
2646;SDS011;1333;50.958;6.770;2022-10-31T16:56:59;4.97;;;2.90;;
2646;SDS011;1333;50.958;6.770;2022-10-31T16:59:27;6.93;;;3.70;;
2646;SDS011;1333;50.958;6.770;2022-10-31T17:01:54;7.33;;;3.53;;
2646;SDS011;1333;50.958;6.770;2022-10-31T17:04:20;8.80;;;4.70;;
2646;SDS011;1333;50.958;6.770;2022-10-31T17:06:45;4.80;;;3.07;;
2646;SDS011;1333;50.958;6.770;2022-10-31T17:09:11;10.57;;;3.40;;
2646;SDS011;1333;50.958;6.770;2022-10-31T17:11:38;7.20;;;4.23;;
2646;SDS011;1333;50.958;6.770;2022-10-31T17:14:08;6.03;;;3.30;;
2646;SDS011;1333;50.958;6.770;2022-10-31T17:16:34;8.17;;;3.37;;
2646;SDS011;1333;50.958;6.770;2022-10-31T17:19:01;5.80;;;4.13;;
2646;SDS011;1333;50.958;6.770;2022-10-31T17:21:27;5.00;;;2.83;;
2646;SDS011;1333;50.958;6.770;2022-10-31T17:23:52;7.37;;;3.90;;
2646;SDS011;1333;50.958;6.770;2022-10-31T17:26:18;7.60;;;3.93;;
2646;SDS011;1333;50.958;6.770;2022-10-31T17:28:44;5.13;;;3.43;;
2646;SDS011;1333;50.958;6.770;2022-10-31T17:31:31;8.23;;;4.33;;
2646;SDS011;1333;50.958;6.770;2022-10-31T17:33:57;6.40;;;3.30;;
2646;SDS011;1333;50.958;6.770;2022-10-31T17:36:23;8.73;;;3.60;;
2646;SDS011;1333;50.958;6.770;2022-10-31T17:38:49;20.20;;;4.40;;
2646;SDS011;1333;50.958;6.770;2022-10-31T17:41:14;4.83;;;3.10;;
2646;SDS011;1333;50.958;6.770;2022-10-31T17:43:40;5.07;;;2.90;;